createdAt,value
2022-11-14T00:01:10.210Z,23.05
2022-11-14T00:03:37.090Z,21.88
2022-11-14T00:06:07.921Z,23.63
2022-11-14T00:08:35.141Z,24.73
2022-11-14T00:11:02.065Z,23.60
2022-11-14T00:13:28.786Z,25.35
2022-11-14T00:15:55.519Z,23.92
2022-11-14T00:18:22.650Z,23.95
2022-11-14T00:20:50.968Z,23.50
2022-11-14T00:23:18.620Z,24.58
2022-11-14T00:25:46.189Z,24.15
2022-11-14T00:28:13.220Z,24.80
2022-11-14T00:30:40.031Z,24.60
2022-11-14T00:33:06.890Z,23.85
2022-11-14T00:35:33.590Z,26.00
2022-11-14T00:38:00.844Z,25.85
2022-11-14T00:40:27.514Z,26.10
2022-11-14T00:42:54.758Z,26.35
2022-11-14T00:45:22.083Z,25.77
2022-11-14T00:47:48.825Z,25.92
2022-11-14T00:50:17.066Z,26.00
2022-11-14T00:52:43.796Z,24.52
2022-11-14T00:55:10.560Z,24.67
2022-11-14T00:57:37.322Z,24.23
2022-11-14T01:00:05.456Z,25.27
2022-11-14T01:02:32.410Z,24.55
2022-11-14T01:04:59.152Z,24.02
2022-11-14T01:07:25.881Z,24.23
2022-11-14T01:09:52.504Z,25.20
2022-11-14T01:12:19.245Z,24.20
2022-11-14T01:14:46.076Z,25.55
2022-11-14T01:17:12.737Z,26.13
2022-11-14T01:19:39.579Z,24.80
2022-11-14T01:22:06.790Z,26.27
2022-11-14T01:24:34.391Z,24.92
2022-11-14T01:27:01.525Z,26.00
2022-11-14T01:29:28.739Z,25.95
2022-11-14T01:31:56.191Z,26.08
2022-11-14T01:34:23.290Z,25.85
2022-11-14T01:36:50.078Z,26.10
2022-11-14T01:39:16.927Z,25.58
2022-11-14T01:41:43.603Z,25.60
2022-11-14T01:44:18.146Z,24.98
2022-11-14T01:46:53.707Z,25.55
2022-11-14T01:49:27.249Z,24.23
2022-11-14T01:52:02.269Z,25.17
2022-11-14T01:54:32.884Z,23.17
2022-11-14T01:57:02.835Z,22.80
2022-11-14T01:59:36.458Z,23.00
2022-11-14T02:02:25.515Z,22.25
2022-11-14T02:05:04.172Z,23.00
2022-11-14T02:07:33.645Z,21.75
2022-11-14T02:10:02.990Z,21.40
2022-11-14T02:12:30.240Z,19.50
2022-11-14T02:14:58.886Z,19.25
2022-11-14T02:17:30.829Z,19.85
2022-11-14T02:20:06.856Z,20.08
2022-11-14T02:25:00.407Z,19.60
2022-11-14T02:27:27.418Z,19.70
2022-11-14T02:29:54.069Z,18.92
2022-11-14T02:32:20.941Z,18.75
2022-11-14T02:34:47.858Z,18.10
2022-11-14T02:37:14.552Z,20.10
2022-11-14T02:39:41.416Z,19.98
2022-11-14T02:42:08.378Z,19.00
2022-11-14T02:44:35.092Z,20.05
2022-11-14T02:47:01.887Z,20.30
2022-11-14T02:49:28.718Z,23.60
2022-11-14T02:51:55.427Z,23.08
2022-11-14T02:54:22.093Z,21.35
2022-11-14T02:56:49.048Z,22.75
2022-11-14T02:59:15.690Z,21.90
2022-11-14T03:01:42.422Z,22.88
2022-11-14T03:04:09.285Z,23.25
2022-11-14T03:06:35.953Z,21.85
2022-11-14T03:09:02.640Z,24.35
2022-11-14T03:11:29.696Z,24.67
2022-11-14T03:13:56.374Z,24.45
2022-11-14T03:16:23.237Z,24.33
2022-11-14T03:18:49.973Z,25.55
2022-11-14T03:21:19.956Z,25.00
2022-11-14T03:23:47.017Z,25.42
2022-11-14T03:26:15.298Z,24.48
2022-11-14T03:28:42.797Z,25.90
2022-11-14T03:31:11.798Z,25.23
2022-11-14T03:33:38.613Z,25.83
2022-11-14T03:36:06.410Z,27.23
2022-11-14T03:38:33.460Z,25.88
2022-11-14T03:41:00.863Z,26.55
2022-11-14T03:43:32.225Z,26.35
2022-11-14T03:46:00.536Z,28.00
2022-11-14T03:48:28.562Z,26.52
2022-11-14T03:50:55.605Z,27.83
2022-11-14T03:53:22.881Z,27.98
2022-11-14T03:55:50.305Z,28.23
2022-11-14T03:58:16.953Z,27.48
2022-11-14T04:00:43.736Z,28.80
2022-11-14T04:03:10.537Z,29.65
2022-11-14T04:05:37.299Z,28.15
2022-11-14T04:08:07.411Z,28.95
2022-11-14T04:10:34.387Z,29.40
2022-11-14T04:13:01.079Z,30.05
2022-11-14T04:15:27.732Z,29.70
2022-11-14T04:17:54.440Z,28.05
2022-11-14T04:20:21.189Z,28.02
2022-11-14T04:22:47.994Z,28.00
2022-11-14T04:25:14.896Z,30.52
2022-11-14T04:27:41.617Z,29.27
2022-11-14T04:30:08.875Z,29.50
2022-11-14T04:32:35.561Z,29.98
2022-11-14T04:35:02.243Z,30.02
2022-11-14T04:37:28.923Z,32.08
2022-11-14T04:40:01.065Z,31.48
2022-11-14T04:42:28.170Z,31.92
2022-11-14T04:44:55.003Z,30.10
2022-11-14T04:47:21.854Z,32.25
2022-11-14T04:49:48.516Z,30.73
2022-11-14T04:52:15.235Z,33.10
2022-11-14T04:54:41.911Z,31.55
2022-11-14T04:57:08.594Z,31.75
2022-11-14T04:59:35.338Z,31.17
2022-11-14T05:02:02.068Z,31.08
2022-11-14T05:04:28.790Z,31.60
2022-11-14T05:06:55.505Z,31.92
2022-11-14T05:09:22.341Z,32.60
2022-11-14T05:11:49.075Z,31.95
2022-11-14T05:14:15.748Z,31.25
2022-11-14T05:16:42.531Z,32.30
2022-11-14T05:19:09.214Z,34.20
2022-11-14T05:21:35.983Z,33.25
2022-11-14T05:24:02.695Z,33.47
2022-11-14T05:26:29.418Z,33.20
2022-11-14T05:28:56.125Z,32.78
2022-11-14T05:31:23.020Z,32.75
2022-11-14T05:33:50.359Z,33.63
2022-11-14T05:36:17.566Z,32.80
2022-11-14T05:38:44.606Z,34.10
2022-11-14T05:41:16.931Z,34.20
2022-11-14T05:43:44.281Z,33.40
2022-11-14T05:46:13.895Z,32.00
2022-11-14T05:48:41.111Z,32.65
2022-11-14T05:51:10.543Z,32.35
2022-11-14T05:53:37.477Z,34.83
2022-11-14T05:56:06.897Z,33.70
2022-11-14T05:58:35.001Z,33.75
2022-11-14T06:01:05.725Z,32.60
2022-11-14T06:03:38.221Z,31.73
2022-11-14T06:06:08.155Z,33.25
2022-11-14T06:08:35.731Z,32.10
2022-11-14T06:11:07.779Z,33.28
2022-11-14T06:13:35.234Z,33.75
2022-11-14T06:16:03.589Z,33.05
2022-11-14T06:18:31.727Z,33.20
2022-11-14T06:21:19.422Z,33.70
2022-11-14T06:23:46.854Z,34.92
2022-11-14T06:26:34.066Z,31.85
2022-11-14T06:29:00.851Z,34.42
2022-11-14T06:31:27.991Z,33.05
2022-11-14T06:33:54.928Z,34.50
2022-11-14T06:36:21.644Z,33.92
2022-11-14T06:38:48.415Z,32.67
2022-11-14T06:41:20.777Z,32.92
2022-11-14T06:43:49.729Z,33.65
2022-11-14T06:46:19.303Z,32.83
2022-11-14T06:48:47.552Z,33.95
2022-11-14T06:51:15.661Z,32.13
2022-11-14T06:53:43.078Z,35.17
2022-11-14T06:56:12.548Z,32.85
2022-11-14T06:58:41.780Z,32.88
2022-11-14T07:01:23.110Z,33.85
2022-11-14T07:03:50.424Z,32.78
2022-11-14T07:06:23.190Z,32.85
2022-11-14T07:08:50.334Z,34.33
2022-11-14T07:11:23.412Z,33.47
2022-11-14T07:13:51.716Z,35.25
2022-11-14T07:16:19.379Z,34.53
2022-11-14T07:18:46.298Z,34.28
2022-11-14T07:21:13.426Z,32.28
2022-11-14T07:23:41.320Z,32.90
2022-11-14T07:26:09.826Z,32.70
2022-11-14T07:28:38.075Z,32.30
2022-11-14T07:31:10.500Z,32.42
2022-11-14T07:33:37.176Z,32.08
2022-11-14T07:36:04.335Z,30.83
2022-11-14T07:38:32.981Z,31.73
2022-11-14T07:41:05.354Z,32.08
2022-11-14T07:43:32.312Z,30.85
2022-11-14T07:46:06.063Z,32.97
2022-11-14T07:48:33.141Z,31.33
2022-11-14T07:51:05.397Z,29.30
2022-11-14T07:53:32.160Z,30.65
2022-11-14T07:56:04.512Z,29.38
2022-11-14T07:58:31.497Z,28.33
2022-11-14T08:01:02.240Z,26.92
2022-11-14T08:03:29.295Z,27.05
2022-11-14T08:06:13.527Z,28.42
2022-11-14T08:08:40.319Z,25.33
2022-11-14T08:11:07.638Z,26.55
2022-11-14T08:13:34.470Z,25.05
2022-11-14T08:16:13.267Z,25.35
2022-11-14T08:18:41.090Z,25.17
2022-11-14T08:21:07.796Z,24.67
2022-11-14T08:23:34.771Z,25.05
2022-11-14T08:26:01.551Z,24.30
2022-11-14T08:28:29.239Z,25.08
2022-11-14T08:31:01.636Z,25.15
2022-11-14T08:33:28.519Z,24.58
2022-11-14T08:35:55.760Z,26.60
2022-11-14T08:38:22.511Z,26.92
2022-11-14T08:40:49.448Z,24.20
2022-11-14T08:43:16.096Z,24.83
2022-11-14T08:45:42.846Z,25.67
2022-11-14T08:48:09.914Z,25.88
2022-11-14T08:50:36.630Z,26.10
2022-11-14T08:53:03.371Z,24.80
2022-11-14T08:55:30.091Z,24.27
2022-11-14T08:57:56.735Z,24.70
2022-11-14T09:00:23.589Z,23.13
2022-11-14T09:02:50.366Z,24.45
2022-11-14T09:05:17.325Z,24.35
2022-11-14T09:07:44.525Z,24.67
2022-11-14T09:10:11.210Z,23.42
2022-11-14T09:12:37.957Z,25.00
2022-11-14T09:15:05.118Z,23.08
2022-11-14T09:17:31.850Z,23.65
2022-11-14T09:19:58.478Z,21.80
2022-11-14T09:22:25.219Z,21.48
2022-11-14T09:24:52.703Z,22.25
2022-11-14T09:27:19.444Z,20.77
2022-11-14T09:29:46.182Z,21.70
2022-11-14T09:32:12.882Z,21.38
2022-11-14T09:34:43.035Z,22.60
2022-11-14T09:37:09.856Z,19.92
2022-11-14T09:39:40.456Z,20.17
2022-11-14T09:42:16.996Z,21.35
2022-11-14T09:44:49.437Z,20.90
2022-11-14T09:47:21.559Z,20.40
2022-11-14T09:49:51.401Z,19.45
2022-11-14T09:52:27.380Z,18.77
2022-11-14T09:54:58.322Z,19.17
2022-11-14T09:57:26.044Z,18.85
2022-11-14T09:59:53.148Z,19.70
2022-11-14T10:02:41.325Z,19.42
2022-11-14T10:05:23.860Z,19.20
2022-11-14T10:08:02.378Z,18.73
2022-11-14T10:10:48.078Z,20.30
2022-11-14T10:13:36.865Z,18.90
2022-11-14T10:16:29.519Z,18.83
2022-11-14T10:19:10.801Z,18.98
2022-11-14T10:22:02.830Z,18.65
2022-11-14T10:24:55.957Z,18.88
2022-11-14T10:27:34.940Z,18.08
2022-11-14T10:30:12.252Z,19.67
2022-11-14T10:32:57.260Z,19.42
2022-11-14T10:35:37.624Z,18.92
2022-11-14T10:38:07.623Z,19.67
2022-11-14T10:40:44.466Z,20.33
2022-11-14T10:43:30.037Z,20.17
2022-11-14T10:46:20.885Z,19.40
2022-11-14T10:48:50.319Z,20.25
2022-11-14T10:51:26.522Z,20.00
2022-11-14T10:54:02.421Z,20.10
2022-11-14T10:56:29.980Z,21.35
2022-11-14T10:58:56.655Z,21.90
2022-11-14T11:01:39.813Z,20.77
2022-11-14T11:04:15.121Z,21.02
2022-11-14T11:06:42.055Z,19.60
2022-11-14T11:09:32.246Z,20.48
2022-11-14T11:12:01.927Z,20.92
2022-11-14T11:14:29.743Z,19.92
2022-11-14T11:17:16.671Z,20.13
2022-11-14T11:19:43.429Z,21.05
2022-11-14T11:22:30.471Z,19.83
2022-11-14T11:24:57.209Z,19.90
2022-11-14T11:27:27.993Z,20.50
2022-11-14T11:30:03.906Z,21.55
2022-11-14T11:32:30.702Z,18.85
2022-11-14T11:34:59.208Z,20.80
2022-11-14T11:37:31.377Z,20.50
2022-11-14T11:40:03.143Z,18.75
2022-11-14T11:45:55.627Z,18.83
2022-11-14T11:48:26.627Z,18.95
2022-11-14T11:50:53.360Z,19.55
2022-11-14T11:53:44.614Z,18.17
2022-11-14T11:56:19.354Z,19.48
2022-11-14T11:58:48.072Z,18.97
2022-11-14T12:01:16.093Z,17.58
2022-11-14T12:03:52.770Z,18.10
2022-11-14T12:06:25.384Z,18.15
2022-11-14T12:09:42.490Z,18.48
2022-11-14T12:12:31.378Z,19.23
2022-11-14T12:18:10.679Z,16.13
2022-11-14T12:20:50.824Z,15.90
2022-11-14T12:23:32.091Z,15.77
2022-11-14T12:26:17.591Z,16.45
2022-11-14T12:29:25.888Z,17.17
2022-11-14T12:32:04.585Z,15.93
2022-11-14T12:34:39.335Z,16.95
2022-11-14T12:37:22.875Z,16.90
2022-11-14T12:39:59.352Z,16.33
2022-11-14T12:42:26.327Z,16.40
2022-11-14T12:44:53.211Z,16.38
2022-11-14T12:47:25.800Z,16.00
2022-11-14T12:49:52.789Z,14.60
2022-11-14T12:52:42.369Z,15.77
2022-11-14T12:55:24.322Z,15.57
2022-11-14T12:58:10.819Z,15.77
2022-11-14T13:01:15.254Z,14.15
2022-11-14T13:04:40.090Z,13.75
2022-11-14T13:07:33.854Z,13.88
2022-11-14T13:10:14.326Z,14.98
2022-11-14T13:13:26.245Z,15.25
2022-11-14T13:16:16.744Z,13.77
2022-11-14T13:19:20.252Z,15.85
2022-11-14T13:22:28.711Z,13.05
2022-11-14T13:25:01.549Z,13.05
2022-11-14T13:28:05.234Z,13.05
2022-11-14T13:30:58.778Z,14.68
2022-11-14T13:33:59.146Z,13.48
2022-11-14T13:36:40.352Z,12.48
2022-11-14T13:39:31.648Z,12.63
2022-11-14T13:42:25.670Z,13.10
2022-11-14T13:45:00.698Z,12.90
2022-11-14T13:47:50.794Z,13.15
2022-11-14T13:50:31.018Z,13.02
2022-11-14T13:52:58.578Z,13.25
2022-11-14T13:55:32.715Z,13.65
2022-11-14T13:58:05.456Z,13.13
2022-11-14T14:00:53.664Z,13.70
2022-11-14T14:03:31.595Z,12.25
2022-11-14T14:06:09.269Z,12.43
2022-11-14T14:12:28.736Z,11.80
2022-11-14T14:15:07.071Z,12.10
2022-11-14T14:17:36.843Z,11.27
2022-11-14T14:20:15.269Z,12.90
2022-11-14T14:22:55.855Z,11.82
2022-11-14T14:25:31.350Z,11.63
2022-11-14T14:28:10.822Z,12.45
2022-11-14T14:30:37.612Z,13.07
2022-11-14T14:33:07.234Z,13.55
2022-11-14T14:35:40.437Z,12.90
2022-11-14T14:38:23.649Z,12.38
2022-11-14T14:40:50.564Z,13.02
2022-11-14T14:43:33.481Z,13.55
2022-11-14T14:46:01.589Z,13.32
2022-11-14T14:48:31.916Z,13.13
2022-11-14T14:51:00.585Z,14.00
2022-11-14T14:53:33.604Z,14.65
2022-11-14T14:56:03.167Z,13.35
2022-11-14T14:58:33.382Z,15.27
2022-11-14T15:01:06.231Z,14.98
2022-11-14T15:03:37.698Z,14.55
2022-11-14T15:06:07.665Z,15.00
2022-11-14T15:08:38.936Z,14.93
2022-11-14T15:11:07.002Z,15.77
2022-11-14T15:13:35.209Z,16.10
2022-11-14T15:16:04.225Z,15.68
2022-11-14T15:18:33.159Z,17.58
2022-11-14T15:21:27.471Z,16.95
2022-11-14T15:24:17.096Z,17.65
2022-11-14T15:26:52.128Z,17.25
2022-11-14T15:29:24.186Z,18.85
2022-11-14T15:31:55.411Z,17.65
2022-11-14T15:34:27.253Z,18.25
2022-11-14T15:37:06.272Z,18.70
2022-11-14T15:39:32.893Z,17.63
2022-11-14T15:42:18.134Z,17.98
2022-11-14T15:44:47.008Z,18.77
2022-11-14T15:47:20.850Z,18.38
2022-11-14T15:50:02.403Z,18.23
2022-11-14T15:52:36.360Z,16.75
2022-11-14T15:55:04.488Z,18.10
2022-11-14T15:57:32.391Z,18.58
2022-11-14T15:59:59.127Z,17.83
2022-11-14T16:02:31.851Z,19.40
2022-11-14T16:04:59.488Z,18.75
2022-11-14T16:07:28.003Z,17.58
2022-11-14T16:09:55.294Z,17.15
2022-11-14T16:12:21.970Z,16.67
2022-11-14T16:14:48.822Z,17.63
2022-11-14T16:17:17.574Z,17.50
2022-11-14T16:19:44.599Z,17.30
2022-11-14T16:22:17.690Z,17.55
2022-11-14T16:24:44.501Z,18.13
2022-11-14T16:27:11.190Z,16.27
2022-11-14T16:29:37.849Z,16.17
2022-11-14T16:32:04.618Z,17.60
2022-11-14T16:34:31.241Z,15.90
2022-11-14T16:37:00.038Z,15.98
2022-11-14T16:39:26.931Z,16.25
2022-11-14T16:41:53.692Z,15.68
2022-11-14T16:44:20.484Z,15.10
2022-11-14T16:46:47.301Z,14.80
2022-11-14T16:49:16.329Z,15.32
2022-11-14T16:51:49.054Z,14.30
2022-11-14T16:54:20.334Z,15.98
2022-11-14T16:56:47.980Z,14.95
2022-11-14T16:59:14.733Z,16.13
2022-11-14T17:01:42.039Z,15.77
2022-11-14T17:04:09.135Z,15.77
2022-11-14T17:06:35.821Z,15.82
2022-11-14T17:09:02.889Z,15.38
2022-11-14T17:11:29.774Z,15.68
2022-11-14T17:13:56.852Z,15.95
2022-11-14T17:16:23.606Z,15.93
2022-11-14T17:18:54.823Z,14.77
2022-11-14T17:21:22.209Z,14.68
2022-11-14T17:23:54.632Z,14.57
2022-11-14T17:26:21.950Z,15.00
2022-11-14T17:28:48.710Z,16.63
2022-11-14T17:31:16.174Z,17.13
2022-11-14T17:33:43.125Z,17.40
2022-11-14T17:36:11.339Z,16.83
2022-11-14T17:38:38.391Z,16.90
2022-11-14T17:41:08.321Z,16.65
2022-11-14T17:43:40.011Z,16.77
2022-11-14T17:46:14.129Z,18.05
2022-11-14T17:48:42.373Z,17.58
2022-11-14T17:51:12.293Z,17.00
2022-11-14T17:53:39.469Z,17.50
2022-11-14T17:56:07.940Z,17.60
2022-11-14T17:58:35.125Z,18.15
2022-11-14T18:01:01.888Z,17.35
2022-11-14T18:03:28.649Z,18.85
2022-11-14T18:06:05.912Z,19.40
2022-11-14T18:08:34.322Z,17.13
2022-11-14T18:11:01.995Z,18.40
2022-11-14T18:13:28.752Z,17.55
2022-11-14T18:15:59.843Z,16.90
2022-11-14T18:18:26.480Z,16.77
2022-11-14T18:20:53.270Z,16.25
2022-11-14T18:23:20.185Z,17.10
2022-11-14T18:25:46.938Z,16.65
2022-11-14T18:28:13.623Z,16.95
2022-11-14T18:30:42.055Z,17.30
2022-11-14T18:33:09.442Z,16.02
2022-11-14T18:35:36.112Z,18.20
2022-11-14T18:38:02.813Z,17.05
2022-11-14T18:40:29.446Z,17.50
2022-11-14T18:42:56.179Z,17.38
2022-11-14T18:45:22.905Z,16.80
2022-11-14T18:47:49.562Z,15.48
2022-11-14T18:50:16.253Z,14.88
2022-11-14T18:52:43.150Z,15.90
2022-11-14T18:55:09.876Z,15.45
2022-11-14T18:57:36.599Z,15.90
2022-11-14T19:00:05.352Z,15.23
2022-11-14T19:02:32.108Z,15.27
2022-11-14T19:04:58.803Z,15.10
2022-11-14T19:07:26.169Z,15.00
2022-11-14T19:09:53.113Z,15.13
2022-11-14T19:12:21.927Z,15.55
2022-11-14T19:14:50.540Z,14.93
2022-11-14T19:17:20.867Z,15.27
2022-11-14T19:19:49.320Z,14.70
2022-11-14T19:22:17.140Z,15.10
2022-11-14T19:24:46.594Z,15.25
2022-11-14T19:27:14.099Z,14.43
2022-11-14T19:29:41.000Z,13.75
2022-11-14T19:32:07.957Z,14.77
2022-11-14T19:34:34.699Z,15.30
2022-11-14T19:37:01.573Z,15.95
2022-11-14T19:39:28.660Z,15.75
2022-11-14T19:41:55.378Z,14.80
2022-11-14T19:44:22.455Z,15.40
2022-11-14T19:46:49.299Z,16.08
2022-11-14T19:49:16.082Z,16.23
2022-11-14T19:51:43.492Z,16.38
2022-11-14T19:54:11.027Z,15.30
2022-11-14T19:56:38.086Z,15.23
2022-11-14T19:59:09.531Z,16.40
2022-11-14T20:01:38.112Z,16.20
2022-11-14T20:04:04.973Z,17.38
2022-11-14T20:06:34.238Z,15.85
2022-11-14T20:09:08.743Z,14.70
2022-11-14T20:11:36.130Z,14.00
2022-11-14T20:14:03.191Z,14.70
2022-11-14T20:16:37.275Z,14.75
2022-11-14T20:19:04.604Z,15.40
2022-11-14T20:21:33.632Z,15.98
2022-11-14T20:24:00.523Z,15.57
2022-11-14T20:26:27.635Z,15.20
2022-11-14T20:28:54.772Z,14.05
2022-11-14T20:31:29.814Z,14.43
2022-11-14T20:33:56.588Z,15.85
2022-11-14T20:36:25.190Z,13.70
2022-11-14T20:38:52.992Z,14.63
2022-11-14T20:41:20.799Z,14.55
2022-11-14T20:43:48.123Z,14.25
2022-11-14T20:46:17.318Z,15.02
2022-11-14T20:48:44.768Z,15.77
2022-11-14T20:51:25.550Z,16.10
2022-11-14T20:53:54.748Z,15.43
2022-11-14T20:56:22.501Z,16.25
2022-11-14T20:58:52.075Z,16.88
2022-11-14T21:01:19.161Z,16.92
2022-11-14T21:03:46.876Z,17.55
2022-11-14T21:06:14.990Z,17.52
2022-11-14T21:08:42.864Z,18.20
2022-11-14T21:11:14.024Z,19.13
2022-11-14T21:13:56.167Z,18.25
2022-11-14T21:16:30.394Z,19.85
2022-11-14T21:18:57.762Z,18.77
2022-11-14T21:21:27.340Z,17.83
2022-11-14T21:23:55.114Z,17.92
2022-11-14T21:26:27.535Z,18.38
2022-11-14T21:29:00.072Z,19.30
2022-11-14T21:31:38.453Z,18.80
2022-11-14T21:34:08.048Z,17.73
2022-11-14T21:36:51.249Z,18.02
2022-11-14T21:39:18.099Z,18.75
2022-11-14T21:41:48.301Z,18.30
2022-11-14T21:44:16.886Z,17.63
2022-11-14T21:46:47.059Z,17.38
2022-11-14T21:49:14.249Z,18.27
2022-11-14T21:51:41.144Z,19.08
2022-11-14T21:54:09.081Z,19.58
2022-11-14T21:56:37.132Z,18.13
2022-11-14T21:59:14.041Z,19.35
2022-11-14T22:02:04.715Z,19.92
2022-11-14T22:04:32.063Z,19.55
2022-11-14T22:07:01.074Z,19.38
2022-11-14T22:09:28.627Z,19.02
2022-11-14T22:11:56.510Z,19.42
2022-11-14T22:14:23.685Z,19.55
2022-11-14T22:16:50.471Z,19.60
2022-11-14T22:19:17.201Z,18.85
2022-11-14T22:21:43.909Z,19.85
2022-11-14T22:24:10.634Z,18.65
2022-11-14T22:26:40.005Z,18.88
2022-11-14T22:29:07.918Z,17.40
2022-11-14T22:31:34.705Z,17.42
2022-11-14T22:34:01.755Z,16.88
2022-11-14T22:36:28.538Z,16.25
2022-11-14T22:38:56.684Z,17.75
2022-11-14T22:41:34.000Z,17.00
2022-11-14T22:44:01.471Z,17.05
2022-11-14T22:46:29.765Z,15.63
2022-11-14T22:48:56.707Z,16.13
2022-11-14T22:51:26.050Z,16.55
2022-11-14T22:53:54.535Z,17.52
2022-11-14T22:56:23.805Z,17.42
2022-11-14T22:58:50.588Z,15.93
2022-11-14T23:01:31.836Z,16.60
2022-11-14T23:04:05.818Z,16.38
2022-11-14T23:06:34.165Z,16.60
2022-11-14T23:09:02.396Z,18.85
2022-11-14T23:11:31.559Z,19.27
2022-11-14T23:13:59.928Z,19.08
2022-11-14T23:16:28.910Z,17.83
2022-11-14T23:18:58.247Z,18.40
2022-11-14T23:21:30.616Z,19.25
2022-11-14T23:24:00.774Z,19.45
2022-11-14T23:26:28.844Z,19.08
2022-11-14T23:28:56.164Z,20.38
2022-11-14T23:31:23.765Z,20.27
2022-11-14T23:33:53.109Z,19.45
2022-11-14T23:36:20.633Z,18.50
2022-11-14T23:38:47.654Z,20.38
2022-11-14T23:41:18.041Z,20.50
2022-11-14T23:43:45.608Z,19.52
2022-11-14T23:46:12.677Z,18.83
2022-11-14T23:48:39.502Z,18.50
2022-11-14T23:51:06.609Z,19.42
2022-11-14T23:53:33.588Z,19.60
2022-11-14T23:56:01.938Z,19.48
2022-11-14T23:58:29.709Z,18.20
